Time;durP1;ratioP1;P1;durP2;ratioP2;P2;SDS_P1;SDS_P2;PMS_P1;PMS_P2;Temp;Humidity;BMP_temperature;BMP_pressure;BME280_temperature;BME280_humidity;BME280_pressure;Samples;Min_cycle;Max_cycle;Signal;HPM_P1;HPM_P2
2021/07/23 00:02:18;;;;;;;14.00;5.22;;;;;;;;;;5043207;28;20500;-76
2021/07/23 00:04:45;;;;;;;8.35;5.32;;;;;;;;;;5043413;28;20056;-76
2021/07/23 00:07:12;;;;;;;11.63;5.00;;;;;;;;;;5043872;28;20128;-76
2021/07/23 00:09:40;;;;;;;9.02;4.88;;;;;;;;;;5044527;28;20140;-76
2021/07/23 00:12:07;;;;;;;6.18;4.95;;;;;;;;;;5042711;28;20040;-76
2021/07/23 00:14:35;;;;;;;10.25;5.35;;;;;;;;;;5044271;28;20095;-76
2021/07/23 00:17:02;;;;;;;11.20;4.82;;;;;;;;;;5042706;28;20135;-76
2021/07/23 00:19:29;;;;;;;14.48;5.15;;;;;;;;;;5043875;28;20672;-76
2021/07/23 00:21:58;;;;;;;7.50;4.45;;;;;;;;;;5043347;28;20164;-76
2021/07/23 00:24:25;;;;;;;9.40;4.90;;;;;;;;;;5036137;28;20049;-76
2021/07/23 00:26:53;;;;;;;14.35;4.93;;;;;;;;;;5035613;28;20124;-76
2021/07/23 00:29:20;;;;;;;9.88;5.40;;;;;;;;;;5044300;28;20048;-76
2021/07/23 00:31:48;;;;;;;9.70;5.20;;;;;;;;;;5042523;28;20063;-76
2021/07/23 00:34:15;;;;;;;11.60;4.75;;;;;;;;;;5043866;28;20084;-76
2021/07/23 00:36:42;;;;;;;10.68;5.20;;;;;;;;;;5044353;28;20085;-76
2021/07/23 00:39:09;;;;;;;9.75;5.13;;;;;;;;;;5043778;28;20161;-76
2021/07/23 00:41:36;;;;;;;10.07;5.53;;;;;;;;;;5042176;28;20143;-76
2021/07/23 00:44:04;;;;;;;9.82;5.43;;;;;;;;;;5042944;28;20493;-76
2021/07/23 00:46:31;;;;;;;12.27;6.00;;;;;;;;;;5042643;28;20048;-76
2021/07/23 00:48:59;;;;;;;11.60;4.90;;;;;;;;;;5043368;28;20946;-76
2021/07/23 00:51:27;;;;;;;11.18;5.63;;;;;;;;;;5042938;28;20203;-76
2021/07/23 00:53:55;;;;;;;10.20;5.85;;;;;;;;;;5044143;28;20185;-76
2021/07/23 00:56:22;;;;;;;11.60;5.68;;;;;;;;;;5043113;28;20143;-76
2021/07/23 00:58:49;;;;;;;14.77;6.25;;;;;;;;;;5043348;28;20164;-76
2021/07/23 01:01:16;;;;;;;10.27;6.15;;;;;;;;;;5044064;28;20481;-76
2021/07/23 01:03:44;;;;;;;11.98;5.38;;;;;;;;;;5042166;28;20057;-76
2021/07/23 01:06:11;;;;;;;10.13;5.55;;;;;;;;;;5043456;28;20136;-76
2021/07/23 01:08:39;;;;;;;13.98;5.63;;;;;;;;;;5043889;28;20061;-76
2021/07/23 01:11:06;;;;;;;10.85;6.00;;;;;;;;;;5040753;28;20620;-76
2021/07/23 01:13:34;;;;;;;6.03;5.32;;;;;;;;;;5047103;28;20140;-76
2021/07/23 01:16:02;;;;;;;8.27;5.80;;;;;;;;;;5047312;28;20056;-76
2021/07/23 01:18:29;;;;;;;10.57;5.82;;;;;;;;;;5046684;28;20060;-76
2021/07/23 01:20:57;;;;;;;11.10;5.90;;;;;;;;;;5046789;28;20049;-76
2021/07/23 01:23:26;;;;;;;11.93;5.63;;;;;;;;;;5047566;28;20089;-76
2021/07/23 01:25:53;;;;;;;15.35;6.15;;;;;;;;;;5046785;28;20045;-76
2021/07/23 01:28:21;;;;;;;14.65;6.35;;;;;;;;;;5046647;28;20067;-76
2021/07/23 01:30:48;;;;;;;10.10;6.50;;;;;;;;;;5048464;28;20134;-76
2021/07/23 01:33:16;;;;;;;11.45;6.03;;;;;;;;;;5047267;28;20049;-76
2021/07/23 01:35:43;;;;;;;11.90;5.95;;;;;;;;;;5048129;28;20139;-76
2021/07/23 01:38:10;;;;;;;11.13;6.53;;;;;;;;;;5043915;28;20167;-76
2021/07/23 01:40:37;;;;;;;9.98;6.85;;;;;;;;;;5046153;28;20160;-76
2021/07/23 01:43:04;;;;;;;10.93;6.60;;;;;;;;;;5046785;28;20195;-76
2021/07/23 01:45:32;;;;;;;15.48;6.70;;;;;;;;;;5047970;28;20409;-76
2021/07/23 01:47:59;;;;;;;15.57;7.45;;;;;;;;;;5037655;28;20064;-76
2021/07/23 01:50:26;;;;;;;13.63;7.95;;;;;;;;;;5046617;28;20072;-76
2021/07/23 01:52:53;;;;;;;11.88;6.57;;;;;;;;;;5047348;28;20123;-76
2021/07/23 01:55:20;;;;;;;15.70;7.93;;;;;;;;;;5045698;28;20052;-76
2021/07/23 01:57:48;;;;;;;11.57;6.60;;;;;;;;;;5045505;28;20124;-76
2021/07/23 02:00:15;;;;;;;12.10;7.13;;;;;;;;;;5047554;28;20091;-76
2021/07/23 02:02:42;;;;;;;18.73;7.88;;;;;;;;;;5046666;28;20947;-76
2021/07/23 02:05:10;;;;;;;12.65;6.68;;;;;;;;;;5045543;28;20053;-76
2021/07/23 02:07:37;;;;;;;13.25;7.32;;;;;;;;;;5043067;28;20136;-76
2021/07/23 02:10:07;;;;;;;9.30;6.70;;;;;;;;;;5038701;28;20128;-76
2021/07/23 02:12:35;;;;;;;14.70;7.38;;;;;;;;;;5046784;28;20138;-76
2021/07/23 02:15:02;;;;;;;11.20;7.32;;;;;;;;;;5046638;28;20087;-76
2021/07/23 02:17:29;;;;;;;11.70;6.80;;;;;;;;;;5044244;28;20051;-76
2021/07/23 02:19:56;;;;;;;14.48;7.10;;;;;;;;;;5046718;28;20045;-76
2021/07/23 02:22:23;;;;;;;13.32;7.80;;;;;;;;;;5041799;28;20104;-76
2021/07/23 02:24:51;;;;;;;9.55;7.50;;;;;;;;;;5036022;28;20057;-76
2021/07/23 02:27:18;;;;;;;13.52;7.30;;;;;;;;;;5045874;28;20059;-76
2021/07/23 02:29:46;;;;;;;14.65;8.73;;;;;;;;;;5046678;28;20068;-76
2021/07/23 02:32:13;;;;;;;13.73;7.72;;;;;;;;;;5044639;28;20670;-76
2021/07/23 02:34:40;;;;;;;13.30;7.85;;;;;;;;;;5046534;28;20048;-76
2021/07/23 02:37:07;;;;;;;16.10;8.27;;;;;;;;;;5047267;28;20049;-76
2021/07/23 02:39:34;;;;;;;11.18;7.40;;;;;;;;;;5046847;28;20135;-76
2021/07/23 02:42:01;;;;;;;11.70;7.45;;;;;;;;;;5044829;28;20068;-76
2021/07/23 02:44:29;;;;;;;14.55;8.13;;;;;;;;;;5045530;28;20055;-76
2021/07/23 02:46:56;;;;;;;13.85;7.20;;;;;;;;;;5044407;28;20476;-76
2021/07/23 02:49:23;;;;;;;12.50;8.57;;;;;;;;;;5046961;28;20045;-76
2021/07/23 02:51:50;;;;;;;16.48;8.00;;;;;;;;;;5043876;28;20049;-76
2021/07/23 02:54:17;;;;;;;13.00;8.02;;;;;;;;;;5046160;28;20834;-76
2021/07/23 02:56:44;;;;;;;9.48;7.05;;;;;;;;;;5045461;28;20148;-76
2021/07/23 02:59:12;;;;;;;9.13;7.00;;;;;;;;;;5046874;28;20144;-76
2021/07/23 03:01:39;;;;;;;18.67;8.10;;;;;;;;;;5044439;28;20167;-76
2021/07/23 03:04:07;;;;;;;12.65;6.57;;;;;;;;;;5044186;28;20139;-76
2021/07/23 03:06:34;;;;;;;18.10;7.60;;;;;;;;;;5044873;28;20100;-76
2021/07/23 03:09:01;;;;;;;16.83;7.63;;;;;;;;;;5044763;28;20141;-76
2021/07/23 03:11:28;;;;;;;14.98;7.57;;;;;;;;;;5046538;28;20159;-76
2021/07/23 03:13:55;;;;;;;8.63;6.10;;;;;;;;;;5043412;28;20132;-76
2021/07/23 03:16:23;;;;;;;16.73;8.55;;;;;;;;;;5044725;28;20064;-76
2021/07/23 03:18:50;;;;;;;15.52;8.00;;;;;;;;;;5044990;28;20135;-76
2021/07/23 03:21:21;;;;;;;20.80;7.82;;;;;;;;;;5044328;28;20175;-76
2021/07/23 03:23:49;;;;;;;13.93;7.70;;;;;;;;;;5045313;28;20041;-76
2021/07/23 03:26:17;;;;;;;15.15;7.63;;;;;;;;;;5041229;28;20068;-76
2021/07/23 03:28:44;;;;;;;19.77;7.55;;;;;;;;;;5044166;28;20045;-76
2021/07/23 03:31:12;;;;;;;11.82;7.03;;;;;;;;;;5043645;28;20175;-76
2021/07/23 03:33:40;;;;;;;15.70;7.57;;;;;;;;;;5045624;28;20049;-76
2021/07/23 03:36:07;;;;;;;18.00;8.70;;;;;;;;;;5044353;28;20525;-76
2021/07/23 03:38:35;;;;;;;12.50;7.57;;;;;;;;;;5044817;28;20136;-76
2021/07/23 03:41:02;;;;;;;18.85;8.52;;;;;;;;;;5044570;28;20645;-76
2021/07/23 03:43:29;;;;;;;12.57;7.05;;;;;;;;;;5059145;28;20571;-76
2021/07/23 03:45:56;;;;;;;18.48;8.00;;;;;;;;;;5043729;28;20553;-76
2021/07/23 03:48:24;;;;;;;13.48;7.80;;;;;;;;;;5044328;28;20052;-76
2021/07/23 03:50:51;;;;;;;14.48;7.57;;;;;;;;;;5041377;28;20859;-76
2021/07/23 03:53:18;;;;;;;9.68;7.50;;;;;;;;;;5043745;28;20041;-76
2021/07/23 03:55:45;;;;;;;13.88;7.55;;;;;;;;;;5041636;28;20805;-76
2021/07/23 03:58:13;;;;;;;22.80;7.95;;;;;;;;;;5044842;28;20053;-76
2021/07/23 04:00:40;;;;;;;15.50;7.28;;;;;;;;;;5044286;28;20045;-76
2021/07/23 04:03:07;;;;;;;15.00;7.25;;;;;;;;;;5038546;28;20048;-76
2021/07/23 04:05:34;;;;;;;11.35;7.45;;;;;;;;;;5039472;28;20056;-76
2021/07/23 04:08:02;;;;;;;12.60;8.20;;;;;;;;;;5042238;28;20053;-76
2021/07/23 04:10:29;;;;;;;16.73;8.10;;;;;;;;;;5040703;28;20043;-76
2021/07/23 04:12:56;;;;;;;17.48;7.88;;;;;;;;;;5045144;28;20610;-76
2021/07/23 04:15:24;;;;;;;15.70;7.93;;;;;;;;;;5038277;28;20051;-76
2021/07/23 04:17:51;;;;;;;17.25;8.73;;;;;;;;;;5042020;28;20128;-76
2021/07/23 04:20:18;;;;;;;17.13;8.27;;;;;;;;;;5044177;28;20131;-76
2021/07/23 04:22:45;;;;;;;22.65;8.52;;;;;;;;;;5044363;28;20194;-76
2021/07/23 04:25:13;;;;;;;24.20;8.52;;;;;;;;;;5043703;28;20080;-76
2021/07/23 04:27:40;;;;;;;14.38;8.80;;;;;;;;;;5041160;28;20176;-76
2021/07/23 04:30:07;;;;;;;16.77;8.52;;;;;;;;;;5037870;28;20406;-76
2021/07/23 04:32:35;;;;;;;16.95;8.88;;;;;;;;;;5044048;28;20079;-76
2021/07/23 04:35:02;;;;;;;20.77;8.68;;;;;;;;;;5042764;28;20084;-77
2021/07/23 04:37:29;;;;;;;20.48;9.20;;;;;;;;;;5043184;28;20147;-77
2021/07/23 04:39:56;;;;;;;21.63;9.02;;;;;;;;;;5042590;28;20179;-76
2021/07/23 04:42:24;;;;;;;21.17;9.32;;;;;;;;;;5040482;28;20055;-78
2021/07/23 04:44:51;;;;;;;14.38;8.55;;;;;;;;;;5043218;28;20048;-77
2021/07/23 04:47:18;;;;;;;25.10;9.32;;;;;;;;;;5047029;28;20128;-79
2021/07/23 04:49:46;;;;;;;16.20;9.10;;;;;;;;;;5048514;28;20049;-78
2021/07/23 04:52:13;;;;;;;15.13;8.25;;;;;;;;;;5050658;28;20124;-80
2021/07/23 04:54:40;;;;;;;17.80;8.80;;;;;;;;;;5050520;28;20476;-79
2021/07/23 04:57:17;;;;;;;20.92;8.93;;;;;;;;;;5050501;28;21629;-79
2021/07/23 04:59:45;;;;;;;20.13;9.10;;;;;;;;;;5043290;28;20057;-79
2021/07/23 05:02:12;;;;;;;17.95;9.20;;;;;;;;;;5049825;28;20489;-80
2021/07/23 05:04:40;;;;;;;20.20;9.13;;;;;;;;;;5049861;28;20114;-77
2021/07/23 05:07:07;;;;;;;18.08;9.80;;;;;;;;;;5040681;28;20080;-77
2021/07/23 05:09:34;;;;;;;20.48;9.10;;;;;;;;;;5046712;28;20072;-77
2021/07/23 05:12:02;;;;;;;24.33;9.18;;;;;;;;;;5063521;28;20449;-77
2021/07/23 05:14:31;;;;;;;18.20;9.27;;;;;;;;;;5042418;28;20735;-77
2021/07/23 05:16:59;;;;;;;21.75;9.13;;;;;;;;;;5047105;28;20809;-77
2021/07/23 05:19:26;;;;;;;18.27;9.20;;;;;;;;;;5046392;28;20041;-77
2021/07/23 05:21:54;;;;;;;20.90;8.70;;;;;;;;;;5049018;28;20131;-77
2021/07/23 05:24:21;;;;;;;16.52;9.07;;;;;;;;;;5047103;28;20084;-77
2021/07/23 05:26:48;;;;;;;15.68;10.15;;;;;;;;;;5047281;28;20040;-77
2021/07/23 05:29:15;;;;;;;26.42;11.98;;;;;;;;;;5045361;28;20512;-77
2021/07/23 05:31:42;;;;;;;20.35;9.98;;;;;;;;;;5046343;28;20160;-77
2021/07/23 05:34:10;;;;;;;20.65;9.52;;;;;;;;;;5046683;28;20140;-78
2021/07/23 05:36:37;;;;;;;24.10;10.38;;;;;;;;;;5046512;28;20132;-78
2021/07/23 05:39:04;;;;;;;19.67;9.77;;;;;;;;;;5046431;28;20126;-77
2021/07/23 05:41:31;;;;;;;18.65;9.43;;;;;;;;;;5049795;28;20118;-77
2021/07/23 05:43:58;;;;;;;22.67;9.85;;;;;;;;;;5037898;28;20143;-78
2021/07/23 05:46:27;;;;;;;24.75;10.35;;;;;;;;;;5044449;28;20055;-77
2021/07/23 05:48:54;;;;;;;17.50;9.73;;;;;;;;;;5045751;28;20203;-77
2021/07/23 05:51:21;;;;;;;25.25;10.52;;;;;;;;;;5047182;28;20465;-77
2021/07/23 05:53:48;;;;;;;17.10;10.13;;;;;;;;;;5045723;28;20132;-77
2021/07/23 05:56:15;;;;;;;24.25;11.82;;;;;;;;;;5046156;28;20136;-77
2021/07/23 05:58:43;;;;;;;20.45;10.60;;;;;;;;;;5047418;28;20076;-77
2021/07/23 06:01:10;;;;;;;22.27;9.93;;;;;;;;;;5045677;28;20125;-78
2021/07/23 06:03:38;;;;;;;24.35;11.25;;;;;;;;;;5046403;28;20056;-78
2021/07/23 06:06:06;;;;;;;26.58;10.85;;;;;;;;;;5047720;28;20131;-78
2021/07/23 06:08:54;;;;;;;18.23;9.10;;;;;;;;;;5046734;28;20434;-78
2021/07/23 06:11:21;;;;;;;25.70;9.38;;;;;;;;;;5039320;28;20710;-78
2021/07/23 06:13:49;;;;;;;16.23;10.07;;;;;;;;;;5046999;28;20136;-78
2021/07/23 06:16:16;;;;;;;21.13;9.75;;;;;;;;;;5044961;28;20062;-78
2021/07/23 06:18:43;;;;;;;17.52;8.68;;;;;;;;;;5048395;28;20705;-77
2021/07/23 06:21:11;;;;;;;20.95;9.55;;;;;;;;;;5044810;28;20053;-78
2021/07/23 06:23:38;;;;;;;18.98;9.60;;;;;;;;;;5045999;28;20045;-78
2021/07/23 06:26:05;;;;;;;20.08;9.75;;;;;;;;;;5045900;28;20148;-78
2021/07/23 06:28:33;;;;;;;22.67;9.68;;;;;;;;;;5045971;28;20040;-78
2021/07/23 06:31:01;;;;;;;25.00;9.43;;;;;;;;;;5051798;28;20087;-78
2021/07/23 06:33:28;;;;;;;23.58;9.68;;;;;;;;;;5044947;28;20086;-78
2021/07/23 06:35:56;;;;;;;22.98;9.50;;;;;;;;;;5044899;28;20124;-78
2021/07/23 06:38:23;;;;;;;24.17;9.55;;;;;;;;;;5043867;28;20567;-78
2021/07/23 06:40:53;;;;;;;20.42;9.15;;;;;;;;;;5044870;28;20515;-78
2021/07/23 06:43:21;;;;;;;21.30;9.55;;;;;;;;;;5041290;28;20056;-78
2021/07/23 06:45:51;;;;;;;25.23;8.55;;;;;;;;;;5042555;28;20045;-78
2021/07/23 06:48:19;;;;;;;21.17;10.02;;;;;;;;;;5041079;28;20056;-78
2021/07/23 06:50:46;;;;;;;19.65;9.52;;;;;;;;;;5041786;28;20055;-78
2021/07/23 06:53:13;;;;;;;20.88;9.27;;;;;;;;;;5040076;28;20080;-78
2021/07/23 06:55:40;;;;;;;21.52;8.93;;;;;;;;;;5040020;28;20144;-78
2021/07/23 06:58:07;;;;;;;17.13;8.48;;;;;;;;;;5039413;28;20045;-78
2021/07/23 07:00:35;;;;;;;13.07;7.90;;;;;;;;;;5038941;28;20068;-78
2021/07/23 07:03:03;;;;;;;19.42;9.05;;;;;;;;;;5041886;28;20052;-78
2021/07/23 07:05:31;;;;;;;24.30;9.45;;;;;;;;;;5040231;28;20055;-78
2021/07/23 07:08:01;;;;;;;17.63;8.70;;;;;;;;;;5040724;28;20048;-78
2021/07/23 07:10:29;;;;;;;17.33;9.00;;;;;;;;;;5041535;28;20144;-78
2021/07/23 07:12:57;;;;;;;21.67;8.98;;;;;;;;;;5038647;28;20171;-78
2021/07/23 07:15:25;;;;;;;17.85;7.35;;;;;;;;;;5039864;28;20076;-78
2021/07/23 07:17:56;;;;;;;29.08;8.20;;;;;;;;;;5039406;28;20608;-77
2021/07/23 07:20:23;;;;;;;16.58;7.65;;;;;;;;;;5038465;28;20053;-78
2021/07/23 07:22:52;;;;;;;13.60;6.75;;;;;;;;;;5039440;28;20138;-78
2021/07/23 07:25:19;;;;;;;15.60;6.60;;;;;;;;;;5039499;28;20160;-78
2021/07/23 07:27:47;;;;;;;17.02;6.50;;;;;;;;;;5037482;28;20544;-78
2021/07/23 07:30:14;;;;;;;16.17;5.75;;;;;;;;;;5041889;28;20137;-78
2021/07/23 07:32:42;;;;;;;16.85;7.47;;;;;;;;;;5039988;28;20127;-78
2021/07/23 07:35:09;;;;;;;22.77;6.78;;;;;;;;;;5043785;28;20293;-78
2021/07/23 07:37:36;;;;;;;15.25;6.35;;;;;;;;;;5044691;28;20705;-77
2021/07/23 07:40:04;;;;;;;18.35;7.30;;;;;;;;;;5043349;28;20162;-76
2021/07/23 07:42:32;;;;;;;21.95;7.15;;;;;;;;;;5045329;28;20622;-78
2021/07/23 07:45:05;;;;;;;13.85;6.00;;;;;;;;;;5040470;28;20056;-78
2021/07/23 07:47:32;;;;;;;13.13;5.72;;;;;;;;;;5042730;28;20037;-79
2021/07/23 07:50:00;;;;;;;13.82;6.07;;;;;;;;;;5042506;28;20096;-80
2021/07/23 07:52:27;;;;;;;16.25;5.80;;;;;;;;;;5045116;28;20489;-79
2021/07/23 07:54:54;;;;;;;18.98;5.80;;;;;;;;;;5045327;28;20505;-78
2021/07/23 07:57:22;;;;;;;23.48;5.35;;;;;;;;;;5047089;28;20144;-78
2021/07/23 07:59:50;;;;;;;13.20;4.82;;;;;;;;;;5041570;28;20136;-78
2021/07/23 08:02:18;;;;;;;10.52;5.20;;;;;;;;;;5043903;28;20053;-76
2021/07/23 08:04:47;;;;;;;35.38;6.47;;;;;;;;;;5044696;28;20374;-78
2021/07/23 08:07:19;;;;;;;47.83;11.00;;;;;;;;;;5043251;28;20123;-79
2021/07/23 08:09:50;;;;;;;27.52;8.02;;;;;;;;;;5044778;28;20056;-80
2021/07/23 08:12:17;;;;;;;66.28;10.88;;;;;;;;;;5041403;28;20048;-79
2021/07/23 08:14:46;;;;;;;16.40;7.22;;;;;;;;;;5040319;28;20487;-78
2021/07/23 08:17:13;;;;;;;52.80;10.75;;;;;;;;;;5035940;28;20469;-78
2021/07/23 08:19:40;;;;;;;88.70;13.23;;;;;;;;;;5040637;28;20072;-78
2021/07/23 08:22:07;;;;;;;16.50;6.50;;;;;;;;;;5042727;28;20049;-79
2021/07/23 08:24:35;;;;;;;17.15;7.72;;;;;;;;;;5045076;28;20143;-79
2021/07/23 08:27:03;;;;;;;15.93;7.47;;;;;;;;;;5041155;28;20077;-78
2021/07/23 08:29:31;;;;;;;24.88;8.23;;;;;;;;;;5043608;28;20072;-78
2021/07/23 08:32:08;;;;;;;17.35;6.97;;;;;;;;;;5044295;28;20036;-78
2021/07/23 08:34:36;;;;;;;11.95;6.20;;;;;;;;;;5041658;28;20110;-79
2021/07/23 08:37:03;;;;;;;12.68;6.72;;;;;;;;;;5046589;28;20137;-79
2021/07/23 08:39:30;;;;;;;12.95;5.85;;;;;;;;;;5045340;28;20132;-79
2021/07/23 08:41:57;;;;;;;15.43;6.95;;;;;;;;;;5041689;28;20041;-79
2021/07/23 08:44:28;;;;;;;17.80;5.72;;;;;;;;;;5046264;28;20053;-78
2021/07/23 08:46:55;;;;;;;18.85;6.18;;;;;;;;;;5044492;28;20139;-79
2021/07/23 08:49:22;;;;;;;25.65;5.95;;;;;;;;;;5043557;28;20127;-79
2021/07/23 08:51:50;;;;;;;14.25;6.85;;;;;;;;;;5044808;28;20123;-78
2021/07/23 08:54:18;;;;;;;12.05;6.40;;;;;;;;;;5045892;28;20118;-79
2021/07/23 08:56:46;;;;;;;13.13;6.07;;;;;;;;;;5036729;28;20045;-78
2021/07/23 08:59:14;;;;;;;15.88;6.78;;;;;;;;;;5044435;28;20164;-79
2021/07/23 09:02:00;;;;;;;8.43;5.57;;;;;;;;;;5044805;28;20134;-78
2021/07/23 09:04:28;;;;;;;9.73;5.78;;;;;;;;;;5044075;28;21367;-78
2021/07/23 09:07:29;;;;;;;16.25;5.55;;;;;;;;;;5045168;28;20164;-78
2021/07/23 09:10:03;;;;;;;14.77;5.60;;;;;;;;;;5030767;28;20052;-78
2021/07/23 09:12:43;;;;;;;14.18;6.15;;;;;;;;;;5044720;28;20091;-77
2021/07/23 09:15:29;;;;;;;19.80;7.32;;;;;;;;;;5042858;28;20139;-78
2021/07/23 09:17:57;;;;;;;16.52;6.22;;;;;;;;;;5039797;28;20072;-78
2021/07/23 09:20:28;;;;;;;37.67;7.22;;;;;;;;;;5045581;28;20669;-77
2021/07/23 09:22:57;;;;;;;13.27;5.75;;;;;;;;;;5042477;28;20132;-76
2021/07/23 09:25:41;;;;;;;18.30;5.60;;;;;;;;;;5043371;28;20575;-79
2021/07/23 09:28:23;;;;;;;17.95;5.60;;;;;;;;;;5042625;28;20464;-79
2021/07/23 09:30:50;;;;;;;10.95;5.00;;;;;;;;;;5045174;28;20080;-78
2021/07/23 09:33:28;;;;;;;14.13;4.95;;;;;;;;;;5047383;28;20374;-79
2021/07/23 09:35:57;;;;;;;11.35;6.13;;;;;;;;;;5040599;28;20241;-79
2021/07/23 09:38:26;;;;;;;12.98;6.50;;;;;;;;;;5042719;28;20144;-79
2021/07/23 09:40:53;;;;;;;13.75;6.47;;;;;;;;;;5058925;28;20103;-79
2021/07/23 09:43:31;;;;;;;14.40;5.50;;;;;;;;;;5045545;28;20089;-79
2021/07/23 09:46:16;;;;;;;20.73;6.00;;;;;;;;;;5064386;28;20045;-79
2021/07/23 09:48:44;;;;;;;13.30;5.82;;;;;;;;;;5048766;28;20052;-79
2021/07/23 09:51:11;;;;;;;13.13;5.20;;;;;;;;;;5040786;28;20048;-79
2021/07/23 09:53:39;;;;;;;16.83;6.10;;;;;;;;;;5047969;28;20445;-79
2021/07/23 09:56:10;;;;;;;14.27;6.38;;;;;;;;;;5050782;28;20084;-80
2021/07/23 09:58:44;;;;;;;11.77;5.50;;;;;;;;;;5049502;28;20132;-79
2021/07/23 10:04:21;;;;;;;19.20;6.40;;;;;;;;;;5021726;28;20049;-78
2021/07/23 10:07:00;;;;;;;15.88;5.70;;;;;;;;;;4995296;28;20074;-79
2021/07/23 10:09:28;;;;;;;14.98;4.82;;;;;;;;;;5015788;28;20164;-78
2021/07/23 10:11:56;;;;;;;12.95;5.10;;;;;;;;;;5007711;28;20050;-78
2021/07/23 10:14:27;;;;;;;13.85;5.40;;;;;;;;;;5006805;28;20052;-78
2021/07/23 10:16:57;;;;;;;7.82;4.65;;;;;;;;;;5007702;28;20154;-78
2021/07/23 10:19:24;;;;;;;14.52;5.15;;;;;;;;;;5007465;28;20081;-78
2021/07/23 10:21:56;;;;;;;12.15;4.93;;;;;;;;;;5008523;28;20152;-78
2021/07/23 10:24:31;;;;;;;79.05;8.73;;;;;;;;;;5001989;28;20133;-79
2021/07/23 10:26:59;;;;;;;10.65;4.63;;;;;;;;;;4989749;28;20090;-79
2021/07/23 10:29:46;;;;;;;23.70;5.40;;;;;;;;;;5004848;28;20058;-77
2021/07/23 10:32:39;;;;;;;12.52;4.90;;;;;;;;;;4988900;28;20125;-77
2021/07/23 10:35:15;;;;;;;8.45;4.53;;;;;;;;;;4989474;28;20057;-79
2021/07/23 10:37:49;;;;;;;12.57;4.80;;;;;;;;;;4989715;28;20058;-79
2021/07/23 10:40:17;;;;;;;8.68;4.55;;;;;;;;;;5006815;28;20133;-79
2021/07/23 10:42:45;;;;;;;7.97;4.40;;;;;;;;;;5008828;28;20081;-80
2021/07/23 10:45:16;;;;;;;16.17;5.60;;;;;;;;;;4990009;28;20060;-79
2021/07/23 10:47:44;;;;;;;8.93;4.35;;;;;;;;;;5008749;28;20468;-79
2021/07/23 10:50:13;;;;;;;7.10;4.30;;;;;;;;;;4991485;28;20161;-79
2021/07/23 10:52:41;;;;;;;12.98;4.75;;;;;;;;;;5010428;28;20050;-80
2021/07/23 10:55:20;;;;;;;8.30;4.75;;;;;;;;;;4992392;28;20141;-80
2021/07/23 10:58:07;;;;;;;8.15;4.43;;;;;;;;;;4992268;28;20053;-80
2021/07/23 11:01:04;;;;;;;12.07;5.05;;;;;;;;;;4991687;28;20089;-80
2021/07/23 11:03:39;;;;;;;7.70;4.55;;;;;;;;;;4979795;28;20054;-77
2021/07/23 11:06:13;;;;;;;20.33;5.32;;;;;;;;;;5015129;28;20161;-76
2021/07/23 11:08:47;;;;;;;12.40;5.15;;;;;;;;;;4996919;28;20058;-77
2021/07/23 11:11:14;;;;;;;24.90;6.85;;;;;;;;;;4989277;28;20862;-76
2021/07/23 11:13:42;;;;;;;15.98;6.03;;;;;;;;;;5002379;28;20046;-78
2021/07/23 11:16:10;;;;;;;16.38;5.18;;;;;;;;;;4989659;28;20057;-78
2021/07/23 11:18:37;;;;;;;13.98;5.55;;;;;;;;;;5006388;28;20121;-78
2021/07/23 11:21:05;;;;;;;26.95;6.40;;;;;;;;;;4984536;28;20806;-78
2021/07/23 11:23:32;;;;;;;12.90;5.00;;;;;;;;;;5010192;28;20451;-78
2021/07/23 11:26:24;;;;;;;9.40;5.05;;;;;;;;;;5003908;28;20077;-76
2021/07/23 11:28:53;;;;;;;14.95;4.78;;;;;;;;;;4984879;28;20195;-77
2021/07/23 11:31:31;;;;;;;7.47;4.32;;;;;;;;;;4987882;28;20105;-77
2021/07/23 11:33:59;;;;;;;17.73;4.90;;;;;;;;;;5007453;28;20054;-77
2021/07/23 11:36:33;;;;;;;12.13;5.03;;;;;;;;;;4989720;28;20113;-77
2021/07/23 11:39:04;;;;;;;13.20;5.78;;;;;;;;;;4990107;28;20153;-77
2021/07/23 11:41:31;;;;;;;11.18;4.93;;;;;;;;;;4989712;28;20136;-77
2021/07/23 11:44:05;;;;;;;23.98;5.10;;;;;;;;;;4989649;28;20077;-78
2021/07/23 11:46:32;;;;;;;9.75;4.90;;;;;;;;;;5006166;28;20049;-77
2021/07/23 11:49:01;;;;;;;16.38;4.47;;;;;;;;;;5004846;28;20654;-77
2021/07/23 11:51:41;;;;;;;11.07;4.47;;;;;;;;;;5004089;28;20141;-77
2021/07/23 11:54:09;;;;;;;10.32;4.95;;;;;;;;;;5004232;28;20129;-77
2021/07/23 11:56:36;;;;;;;15.18;4.93;;;;;;;;;;5004302;28;20050;-77
2021/07/23 11:59:04;;;;;;;9.15;5.05;;;;;;;;;;5006205;28;20053;-77
2021/07/23 12:01:38;;;;;;;13.63;5.00;;;;;;;;;;4988372;28;20156;-77
2021/07/23 12:04:07;;;;;;;13.85;5.72;;;;;;;;;;5005754;28;20525;-77
2021/07/23 12:06:38;;;;;;;15.25;5.10;;;;;;;;;;4988530;28;20169;-77
2021/07/23 12:09:06;;;;;;;9.55;4.75;;;;;;;;;;5005999;28;20525;-77
2021/07/23 12:11:34;;;;;;;12.38;4.88;;;;;;;;;;4989281;28;20467;-77
2021/07/23 12:14:08;;;;;;;30.65;7.28;;;;;;;;;;5005217;28;20161;-76
2021/07/23 12:16:39;;;;;;;27.98;6.20;;;;;;;;;;5000239;28;20041;-77
2021/07/23 12:19:11;;;;;;;26.05;6.88;;;;;;;;;;5005358;28;20800;-76
2021/07/23 12:21:40;;;;;;;18.52;6.38;;;;;;;;;;4988406;28;20089;-77
2021/07/23 12:24:08;;;;;;;14.32;5.57;;;;;;;;;;4988205;28;20081;-76
2021/07/23 12:26:39;;;;;;;9.45;5.22;;;;;;;;;;5003700;28;20112;-76
2021/07/23 12:29:08;;;;;;;14.13;6.25;;;;;;;;;;4988240;28;20137;-77
2021/07/23 12:31:39;;;;;;;15.20;5.55;;;;;;;;;;4988973;28;20152;-76
2021/07/23 12:34:19;;;;;;;20.38;6.30;;;;;;;;;;5004970;28;20057;-75
2021/07/23 12:36:48;;;;;;;16.45;6.28;;;;;;;;;;5000624;28;20193;-75
2021/07/23 12:39:15;;;;;;;30.92;7.00;;;;;;;;;;5006010;28;20088;-76
2021/07/23 12:41:45;;;;;;;17.83;6.70;;;;;;;;;;4988479;28;20057;-75
2021/07/23 12:44:16;;;;;;;24.38;6.90;;;;;;;;;;4988409;28;20536;-76
2021/07/23 12:46:46;;;;;;;12.32;5.57;;;;;;;;;;5005590;28;20553;-75
2021/07/23 12:49:21;;;;;;;13.88;6.15;;;;;;;;;;5005318;28;20573;-76
2021/07/23 12:52:02;;;;;;;12.05;5.43;;;;;;;;;;5006028;28;20050;-75
2021/07/23 12:54:36;;;;;;;14.40;6.00;;;;;;;;;;5004839;28;20071;-75
2021/07/23 12:57:16;;;;;;;12.13;5.93;;;;;;;;;;5004384;28;21215;-75
2021/07/23 12:59:44;;;;;;;13.18;6.30;;;;;;;;;;4997004;28;20124;-76
2021/07/23 13:02:13;;;;;;;16.60;6.90;;;;;;;;;;5003480;28;20120;-75
2021/07/23 13:04:40;;;;;;;12.40;5.30;;;;;;;;;;5005481;28;20069;-76
2021/07/23 13:07:08;;;;;;;10.60;6.43;;;;;;;;;;4985462;28;20121;-75
2021/07/23 13:09:41;;;;;;;10.45;5.75;;;;;;;;;;5004094;28;20041;-76
2021/07/23 13:12:08;;;;;;;10.48;5.28;;;;;;;;;;4992951;28;20444;-76
2021/07/23 13:14:36;;;;;;;17.98;6.38;;;;;;;;;;5004810;28;20521;-76
2021/07/23 13:17:03;;;;;;;19.77;6.63;;;;;;;;;;5008133;28;20061;-76
2021/07/23 13:19:30;;;;;;;13.85;5.60;;;;;;;;;;4997326;28;20164;-76
2021/07/23 13:22:04;;;;;;;18.40;6.25;;;;;;;;;;5004287;28;20190;-76
2021/07/23 13:24:32;;;;;;;12.32;5.32;;;;;;;;;;5003436;28;20159;-76
2021/07/23 13:26:59;;;;;;;12.88;6.20;;;;;;;;;;5003153;28;20100;-76
2021/07/23 13:29:26;;;;;;;11.20;5.68;;;;;;;;;;4978268;28;20426;-77
2021/07/23 13:31:54;;;;;;;20.10;6.10;;;;;;;;;;4991176;28;20180;-75
2021/07/23 13:34:24;;;;;;;14.32;5.57;;;;;;;;;;5008540;28;20045;-79
2021/07/23 13:36:54;;;;;;;11.70;5.55;;;;;;;;;;4991493;28;20089;-77
2021/07/23 13:39:32;;;;;;;12.35;5.60;;;;;;;;;;4978493;28;20595;-77
2021/07/23 13:42:01;;;;;;;16.17;5.57;;;;;;;;;;4989283;28;20764;-77
2021/07/23 13:44:29;;;;;;;9.73;5.40;;;;;;;;;;4997333;28;20097;-77
2021/07/23 13:46:56;;;;;;;12.02;5.22;;;;;;;;;;5005391;28;20152;-77
2021/07/23 13:49:25;;;;;;;12.10;5.53;;;;;;;;;;4976653;28;20742;-77
2021/07/23 13:51:52;;;;;;;16.08;6.70;;;;;;;;;;4989311;28;20495;-77
2021/07/23 13:54:19;;;;;;;23.35;5.93;;;;;;;;;;4988287;28;20165;-77
2021/07/23 13:56:47;;;;;;;11.70;5.63;;;;;;;;;;5008050;28;20060;-78
2021/07/23 13:59:16;;;;;;;13.55;5.35;;;;;;;;;;4975612;28;20081;-77
2021/07/23 14:01:43;;;;;;;21.42;5.75;;;;;;;;;;5007361;28;20064;-76
2021/07/23 14:04:11;;;;;;;10.80;5.30;;;;;;;;;;5007375;28;20050;-76
2021/07/23 14:06:38;;;;;;;13.35;5.55;;;;;;;;;;5005900;28;20053;-76
2021/07/23 14:09:05;;;;;;;12.30;5.63;;;;;;;;;;4976600;28;20085;-76
2021/07/23 14:11:32;;;;;;;13.15;5.72;;;;;;;;;;4990089;28;20133;-76
2021/07/23 14:13:59;;;;;;;9.77;5.57;;;;;;;;;;4990954;28;20961;-76
2021/07/23 14:16:27;;;;;;;12.18;5.65;;;;;;;;;;5007393;28;20164;-75
2021/07/23 14:18:54;;;;;;;11.80;5.75;;;;;;;;;;4991406;28;20038;-76
2021/07/23 14:21:21;;;;;;;16.17;5.80;;;;;;;;;;5002573;28;20137;-76
2021/07/23 14:23:49;;;;;;;123.82;12.27;;;;;;;;;;5006833;28;20089;-77
2021/07/23 14:26:20;;;;;;;20.55;7.40;;;;;;;;;;4989987;28;20165;-78
2021/07/23 14:28:48;;;;;;;11.23;5.13;;;;;;;;;;4995137;28;20074;-78
2021/07/23 14:31:18;;;;;;;13.90;6.13;;;;;;;;;;5001160;28;20514;-76
2021/07/23 14:33:46;;;;;;;13.30;6.40;;;;;;;;;;5001939;28;20061;-77
2021/07/23 14:36:15;;;;;;;11.73;5.50;;;;;;;;;;5007490;28;20137;-79
2021/07/23 14:38:42;;;;;;;13.57;5.60;;;;;;;;;;4982823;28;20045;-78
2021/07/23 14:41:10;;;;;;;32.40;6.00;;;;;;;;;;4985927;28;20082;-77
2021/07/23 14:43:37;;;;;;;19.52;6.05;;;;;;;;;;5007457;28;20111;-78
2021/07/23 14:46:04;;;;;;;9.15;5.00;;;;;;;;;;4989194;28;20913;-77